createdAt,value
2016-09-16T03:00:46.320Z,1012.19
2016-09-16T03:01:11.869Z,1012.2
2016-09-16T03:01:37.526Z,1012.2
2016-09-16T03:02:03.090Z,1012.19
2016-09-16T03:02:28.618Z,1012.18
2016-09-16T03:02:54.248Z,1012.2
2016-09-16T03:03:19.917Z,1012.19
2016-09-16T03:03:45.518Z,1012.18
2016-09-16T03:04:11.197Z,1012.17
2016-09-16T03:04:36.756Z,1012.2
2016-09-16T03:05:02.379Z,1012.2
2016-09-16T03:05:28.032Z,1012.16
2016-09-16T03:05:53.719Z,1012.2
2016-09-16T03:06:19.349Z,1012.17
2016-09-16T03:06:44.932Z,1012.17
2016-09-16T03:07:10.545Z,1012.18
2016-09-16T03:07:36.105Z,1012.22
2016-09-16T03:08:01.724Z,1012.19
2016-09-16T03:08:27.288Z,1012.16
2016-09-16T03:08:52.907Z,1012.15
2016-09-16T03:09:18.496Z,1012.15
2016-09-16T03:09:44.081Z,1012.13
2016-09-16T03:10:09.700Z,1012.13
2016-09-16T03:10:35.259Z,1012.09
2016-09-16T03:11:00.831Z,1012.12
2016-09-16T03:11:26.452Z,1012.09
2016-09-16T03:11:52.018Z,1012.08
2016-09-16T03:12:17.640Z,1012.12
2016-09-16T03:12:43.208Z,1012.12
2016-09-16T03:13:08.801Z,1012.09
2016-09-16T03:13:34.351Z,1012.09
2016-09-16T03:13:59.979Z,1012.08
2016-09-16T03:14:25.680Z,1012.07
2016-09-16T03:14:51.241Z,1012.07
2016-09-16T03:15:16.799Z,1012.07
2016-09-16T03:15:42.351Z,1012.13
2016-09-16T03:16:07.920Z,1012.09
2016-09-16T03:16:33.519Z,1012.12
2016-09-16T03:16:59.110Z,1012.1
2016-09-16T03:17:24.828Z,1012.11
2016-09-16T03:17:50.400Z,1012.14
2016-09-16T03:18:15.960Z,1012.09
2016-09-16T03:18:41.639Z,1012.11
2016-09-16T03:19:07.202Z,1012.11
2016-09-16T03:19:32.746Z,1012.15
2016-09-16T03:19:58.304Z,1012.14
2016-09-16T03:20:23.862Z,1012.16
2016-09-16T03:20:49.427Z,1012.15
2016-09-16T03:21:14.998Z,1012.16
2016-09-16T03:21:40.577Z,1012.11
2016-09-16T03:22:06.126Z,1012.14
2016-09-16T03:22:31.732Z,1012.08
2016-09-16T03:22:57.296Z,1012.12
2016-09-16T03:23:22.922Z,1012.09
2016-09-16T03:23:48.488Z,1012.11
2016-09-16T03:24:14.150Z,1012.08
2016-09-16T03:24:39.723Z,1012.08
2016-09-16T03:25:05.379Z,1012.1
2016-09-16T03:25:30.975Z,1012.11
2016-09-16T03:25:56.606Z,1012.11
2016-09-16T03:26:22.085Z,1012.13
2016-09-16T03:26:47.637Z,1012.17
2016-09-16T03:27:13.200Z,1012.15
2016-09-16T03:27:38.753Z,1012.15
2016-09-16T03:28:04.316Z,1012.16
2016-09-16T03:28:29.888Z,1012.14
2016-09-16T03:28:55.471Z,1012.14
2016-09-16T03:29:21.106Z,1012.13
2016-09-16T03:29:46.704Z,1012.17
2016-09-16T03:30:12.299Z,1012.15
2016-09-16T03:30:37.869Z,1012.15
2016-09-16T03:31:03.441Z,1012.14
2016-09-16T03:31:28.998Z,1012.16
2016-09-16T03:31:54.552Z,1012.15
2016-09-16T03:32:20.108Z,1012.17
2016-09-16T03:32:45.674Z,1012.16
2016-09-16T03:33:11.244Z,1012.15
2016-09-16T03:33:36.824Z,1012.14
2016-09-16T03:34:02.372Z,1012.15
2016-09-16T03:34:27.956Z,1012.19
2016-09-16T03:34:53.515Z,1012.17
2016-09-16T03:35:19.078Z,1012.18
2016-09-16T03:35:44.640Z,1012.13
2016-09-16T03:36:10.282Z,1012.14
2016-09-16T03:36:35.875Z,1012.13
2016-09-16T03:37:01.440Z,1012.12
2016-09-16T03:37:26.996Z,1012.12
2016-09-16T03:37:52.541Z,1012.08
2016-09-16T03:38:18.100Z,1012.06
2016-09-16T03:38:43.661Z,1012.1
2016-09-16T03:39:09.241Z,1012.08
2016-09-16T03:39:34.810Z,1012.08
2016-09-16T03:40:00.421Z,1012.09
2016-09-16T03:40:25.979Z,1012.06
2016-09-16T03:40:51.552Z,1012.09
2016-09-16T03:41:17.131Z,1012.03
2016-09-16T03:41:42.711Z,1012.05
2016-09-16T03:42:08.260Z,1012.06
2016-09-16T03:42:33.847Z,1012.08
2016-09-16T03:42:59.475Z,1012.04
2016-09-16T03:43:25.095Z,1012.05
2016-09-16T03:43:50.662Z,1012.04
2016-09-16T03:44:16.226Z,1012.03
2016-09-16T03:44:41.769Z,1012.02
2016-09-16T03:45:07.373Z,1012.03
2016-09-16T03:45:32.942Z,1012.03
2016-09-16T03:45:58.504Z,1012.01
2016-09-16T03:46:24.070Z,1012
2016-09-16T03:46:49.643Z,1012.04
2016-09-16T03:47:15.226Z,1012.06
2016-09-16T03:47:40.787Z,1012.03
2016-09-16T03:48:06.381Z,1012.06
2016-09-16T03:48:31.949Z,1012.06
2016-09-16T03:48:57.552Z,1012.09
2016-09-16T03:49:23.110Z,1012.08
2016-09-16T03:49:48.682Z,1012.08
2016-09-16T03:50:14.305Z,1012.09
2016-09-16T03:50:40.000Z,1012.09
2016-09-16T03:51:05.573Z,1012.08
2016-09-16T03:51:31.194Z,1012.08
2016-09-16T03:51:56.740Z,1012.1
2016-09-16T03:52:22.305Z,1012.09
2016-09-16T03:52:47.869Z,1012.1
2016-09-16T03:53:13.446Z,1012.11
2016-09-16T03:53:39.017Z,1012.09
2016-09-16T03:54:04.575Z,1012.08
2016-09-16T03:54:30.141Z,1012.11
2016-09-16T03:54:55.721Z,1012.09
2016-09-16T03:55:21.311Z,1012.09
2016-09-16T03:55:46.863Z,1012.12
2016-09-16T03:56:12.427Z,1012.13
2016-09-16T03:56:38.104Z,1012.12
2016-09-16T03:57:03.580Z,1012.1
2016-09-16T03:57:29.156Z,1012.14
2016-09-16T03:57:54.728Z,1012.12
2016-09-16T03:58:20.305Z,1012.1
2016-09-16T03:58:45.882Z,1012.15
2016-09-16T03:59:11.464Z,1012.13
2016-09-16T03:59:37.042Z,1012.11
2016-09-16T04:00:02.660Z,1012.1
2016-09-16T04:00:28.220Z,1012.13
2016-09-16T04:00:53.777Z,1012.14
2016-09-16T04:01:19.343Z,1012.16
2016-09-16T04:01:44.909Z,1012.17
2016-09-16T04:02:10.467Z,1012.16
2016-09-16T04:02:36.039Z,1012.19
2016-09-16T04:03:01.611Z,1012.18
2016-09-16T04:03:27.165Z,1012.2
2016-09-16T04:03:52.921Z,1012.19
2016-09-16T04:04:18.473Z,1012.21
2016-09-16T04:04:44.055Z,1012.18
2016-09-16T04:05:09.629Z,1012.13
2016-09-16T04:05:35.290Z,1012.11
2016-09-16T04:06:00.863Z,1012.14
2016-09-16T04:06:26.414Z,1012.14
2016-09-16T04:06:51.977Z,1012.14
2016-09-16T04:07:17.531Z,1012.12
2016-09-16T04:07:43.107Z,1012.13
2016-09-16T04:08:08.753Z,1012.16
2016-09-16T04:08:34.317Z,1012.14
2016-09-16T04:08:59.885Z,1012.13
2016-09-16T04:09:25.511Z,1012.11
2016-09-16T04:09:51.067Z,1012.09
2016-09-16T04:10:16.637Z,1012.07
2016-09-16T04:10:42.301Z,1012.12
2016-09-16T04:11:07.918Z,1012.11
2016-09-16T04:11:33.474Z,1012.07
2016-09-16T04:11:59.025Z,1012.08
2016-09-16T04:12:24.581Z,1012.07
2016-09-16T04:12:50.143Z,1012.09
2016-09-16T04:13:15.733Z,1012.14
2016-09-16T04:13:41.293Z,1012.12
2016-09-16T04:14:06.850Z,1012.07
2016-09-16T04:14:32.511Z,1012.09
2016-09-16T04:14:58.093Z,1012.05
2016-09-16T04:15:23.656Z,1012.11
2016-09-16T04:15:49.214Z,1012.08
2016-09-16T04:16:14.780Z,1012.09
2016-09-16T04:16:40.363Z,1012.08
2016-09-16T04:17:05.921Z,1012.06
2016-09-16T04:17:31.487Z,1012.07
2016-09-16T04:18:44.993Z,1012.04
2016-09-16T04:19:10.556Z,1012.02
2016-09-16T04:19:36.118Z,1012.02
2016-09-16T04:20:01.672Z,1012.02
2016-09-16T04:20:27.225Z,1011.99
2016-09-16T04:20:52.787Z,1012.02
2016-09-16T04:21:18.365Z,1012.02
2016-09-16T04:21:43.951Z,1012.05
2016-09-16T04:22:09.539Z,1012.01
2016-09-16T04:22:35.105Z,1012.07
2016-09-16T04:23:00.660Z,1012.09
2016-09-16T04:23:26.221Z,1012.11
2016-09-16T04:23:51.777Z,1012.1
2016-09-16T04:24:17.325Z,1012.09
2016-09-16T04:24:42.881Z,1012.11
2016-09-16T04:25:08.437Z,1012.13
2016-09-16T04:25:33.989Z,1012.12
2016-09-16T04:25:59.530Z,1012.1
2016-09-16T04:26:25.109Z,1012.15
2016-09-16T04:26:50.797Z,1012.14
2016-09-16T04:27:16.345Z,1012.17
2016-09-16T04:27:41.989Z,1012.14
2016-09-16T04:28:07.538Z,1012.14
2016-09-16T04:28:33.086Z,1012.18
2016-09-16T04:28:58.643Z,1012.17
2016-09-16T04:29:24.223Z,1012.14
2016-09-16T04:29:49.795Z,1012.15
2016-09-16T04:30:15.370Z,1012.17
2016-09-16T04:30:41.196Z,1012.16
2016-09-16T04:31:06.761Z,1012.15
2016-09-16T04:31:32.323Z,1012.12
2016-09-16T04:31:57.950Z,1012.13
2016-09-16T04:32:56.256Z,1012.13
2016-09-16T04:33:21.819Z,1012.14
2016-09-16T04:33:47.386Z,1012.14
2016-09-16T04:34:12.946Z,1012.13
2016-09-16T04:34:38.510Z,1012.15
2016-09-16T04:35:04.058Z,1012.18
2016-09-16T04:35:29.637Z,1012.16
2016-09-16T04:35:55.237Z,1012.2
2016-09-16T04:36:20.870Z,1012.23
2016-09-16T04:36:46.426Z,1012.27
2016-09-16T04:37:11.997Z,1012.24
2016-09-16T04:37:37.558Z,1012.3
2016-09-16T04:38:03.109Z,1012.31
2016-09-16T04:40:42.874Z,1012.37
2016-09-16T04:41:08.442Z,1012.33
2016-09-16T04:41:34.036Z,1012.35
2016-09-16T04:41:59.617Z,1012.35
2016-09-16T04:42:25.189Z,1012.35
2016-09-16T04:42:50.783Z,1012.37
2016-09-16T04:43:16.337Z,1012.37
2016-09-16T04:43:41.873Z,1012.34
2016-09-16T04:44:07.421Z,1012.35
2016-09-16T04:44:33.012Z,1012.32
2016-09-16T04:44:58.680Z,1012.33
2016-09-16T04:45:24.267Z,1012.34
2016-09-16T04:45:49.833Z,1012.34
2016-09-16T04:46:15.388Z,1012.32
2016-09-16T04:46:40.963Z,1012.31
2016-09-16T04:47:06.590Z,1012.32
2016-09-16T04:47:32.151Z,1012.32
2016-09-16T04:47:57.699Z,1012.35
2016-09-16T04:48:23.283Z,1012.34
2016-09-16T04:48:48.889Z,1012.36
2016-09-16T04:49:14.411Z,1012.37
2016-09-16T04:49:39.990Z,1012.33
2016-09-16T04:50:05.554Z,1012.34
2016-09-16T04:50:31.122Z,1012.34
2016-09-16T04:50:56.701Z,1012.33
2016-09-16T04:51:22.340Z,1012.27
2016-09-16T04:51:47.899Z,1012.29
2016-09-16T04:52:13.449Z,1012.31
2016-09-16T04:52:39.045Z,1012.31
2016-09-16T04:53:04.623Z,1012.33
2016-09-16T04:53:30.190Z,1012.31
2016-09-16T04:54:33.485Z,1012.28
2016-09-16T04:54:59.043Z,1012.28
2016-09-16T04:55:24.608Z,1012.31
2016-09-16T04:55:50.200Z,1012.29
2016-09-16T04:56:15.754Z,1012.33
2016-09-16T04:56:41.301Z,1012.33
2016-09-16T04:57:06.864Z,1012.34
2016-09-16T04:57:32.432Z,1012.36
2016-09-16T04:57:58.069Z,1012.37
2016-09-16T04:58:23.637Z,1012.39
2016-09-16T04:58:49.195Z,1012.36
2016-09-16T04:59:14.766Z,1012.37
2016-09-16T04:59:40.353Z,1012.36
2016-09-16T05:00:05.908Z,1012.35
2016-09-16T05:00:31.474Z,1012.37
2016-09-16T05:00:57.044Z,1012.36
2016-09-16T05:01:22.733Z,1012.37
2016-09-16T05:01:48.383Z,1012.36
2016-09-16T05:02:13.956Z,1012.37
2016-09-16T05:02:39.631Z,1012.38
2016-09-16T05:03:05.192Z,1012.37
2016-09-16T05:03:30.745Z,1012.39
2016-09-16T05:03:56.415Z,1012.36
2016-09-16T05:04:21.981Z,1012.37
2016-09-16T05:04:47.541Z,1012.39
2016-09-16T05:05:13.106Z,1012.35
2016-09-16T05:05:38.660Z,1012.34
2016-09-16T05:06:04.219Z,1012.37
2016-09-16T05:06:29.805Z,1012.37
2016-09-16T05:06:55.373Z,1012.37
2016-09-16T05:07:20.925Z,1012.38
2016-09-16T05:07:46.526Z,1012.37
2016-09-16T05:08:12.093Z,1012.37
2016-09-16T05:08:37.638Z,1012.34
2016-09-16T05:09:03.212Z,1012.36
2016-09-16T05:09:28.767Z,1012.37
2016-09-16T05:09:54.401Z,1012.36
2016-09-16T05:10:20.014Z,1012.37
2016-09-16T05:10:45.684Z,1012.37
2016-09-16T05:11:11.273Z,1012.37
2016-09-16T05:11:36.831Z,1012.38
2016-09-16T05:12:02.435Z,1012.4
2016-09-16T05:12:28.010Z,1012.39
2016-09-16T05:12:53.570Z,1012.45
2016-09-16T05:13:19.163Z,1012.43
2016-09-16T05:13:44.719Z,1012.39
2016-09-16T05:14:10.279Z,1012.34
2016-09-16T05:14:35.828Z,1012.34
2016-09-16T05:15:01.402Z,1012.34
2016-09-16T05:15:26.958Z,1012.32
2016-09-16T05:15:52.507Z,1012.25
2016-09-16T05:16:18.092Z,1012.26
2016-09-16T05:16:43.766Z,1012.25
2016-09-16T05:17:09.326Z,1012.27
2016-09-16T05:17:34.875Z,1012.32
2016-09-16T05:18:00.489Z,1012.34
2016-09-16T05:18:26.059Z,1012.32
2016-09-16T05:18:51.651Z,1012.32
2016-09-16T05:19:17.215Z,1012.3
2016-09-16T05:19:42.785Z,1012.33
2016-09-16T05:20:08.383Z,1012.39
2016-09-16T05:20:33.944Z,1012.37
2016-09-16T05:20:59.516Z,1012.36
2016-09-16T05:21:25.143Z,1012.39
2016-09-16T05:21:50.735Z,1012.39
2016-09-16T05:22:16.300Z,1012.36
2016-09-16T05:22:41.859Z,1012.38
2016-09-16T05:23:07.538Z,1012.39
2016-09-16T05:23:33.111Z,1012.42
2016-09-16T05:23:58.689Z,1012.39
2016-09-16T05:24:24.270Z,1012.35
2016-09-16T05:24:49.891Z,1012.38
2016-09-16T05:25:15.471Z,1012.37
2016-09-16T05:25:41.028Z,1012.34
2016-09-16T05:26:49.492Z,1012.3
2016-09-16T05:27:15.059Z,1012.33
2016-09-16T05:27:40.626Z,1012.36
2016-09-16T05:28:06.243Z,1012.35
2016-09-16T05:28:31.806Z,1012.33
2016-09-16T05:28:57.353Z,1012.32
2016-09-16T05:29:23.017Z,1012.35
2016-09-16T05:29:48.566Z,1012.34
2016-09-16T05:30:14.143Z,1012.39
2016-09-16T05:30:39.700Z,1012.41
2016-09-16T05:31:05.305Z,1012.38
2016-09-16T05:31:30.887Z,1012.37
2016-09-16T05:31:56.462Z,1012.39
2016-09-16T05:32:22.027Z,1012.43
2016-09-16T05:32:47.582Z,1012.43
2016-09-16T05:33:13.127Z,1012.44
2016-09-16T05:33:38.716Z,1012.38
2016-09-16T05:34:04.277Z,1012.39
2016-09-16T05:34:29.832Z,1012.45
2016-09-16T05:34:55.379Z,1012.46
2016-09-16T05:35:20.949Z,1012.47
2016-09-16T05:35:46.490Z,1012.46
2016-09-16T05:36:12.048Z,1012.46
2016-09-16T05:36:37.595Z,1012.51
2016-09-16T05:37:03.161Z,1012.45
2016-09-16T05:37:28.713Z,1012.45
2016-09-16T05:37:54.266Z,1012.44
2016-09-16T05:38:19.843Z,1012.42
2016-09-16T05:38:45.417Z,1012.46
2016-09-16T05:39:10.962Z,1012.44
2016-09-16T05:39:36.539Z,1012.44
2016-09-16T05:40:02.124Z,1012.45
2016-09-16T05:40:27.722Z,1012.49
2016-09-16T05:40:53.296Z,1012.44
2016-09-16T05:41:18.887Z,1012.46
2016-09-16T05:41:44.812Z,1012.48
2016-09-16T05:42:10.382Z,1012.5
2016-09-16T05:42:35.955Z,1012.5
2016-09-16T05:43:01.497Z,1012.59
2016-09-16T05:43:27.198Z,1012.54
2016-09-16T05:43:52.768Z,1012.58
2016-09-16T05:44:18.340Z,1012.57
2016-09-16T05:44:43.919Z,1012.55
2016-09-16T05:45:09.484Z,1012.58
2016-09-16T05:45:35.058Z,1012.6
2016-09-16T05:46:00.627Z,1012.59
2016-09-16T05:46:26.189Z,1012.61
2016-09-16T05:46:51.754Z,1012.66
2016-09-16T05:48:00.011Z,1012.75
2016-09-16T05:48:25.576Z,1012.74
2016-09-16T05:48:51.154Z,1012.77
2016-09-16T05:49:16.705Z,1012.79
2016-09-16T05:49:42.410Z,1012.84
2016-09-16T05:50:07.971Z,1012.78
2016-09-16T05:50:33.555Z,1012.79
2016-09-16T05:50:59.188Z,1012.78
2016-09-16T05:51:24.738Z,1012.73
2016-09-16T05:51:50.294Z,1012.78
2016-09-16T05:52:15.869Z,1012.77
2016-09-16T05:52:41.420Z,1012.75
2016-09-16T05:53:59.948Z,1012.75
2016-09-16T05:54:58.020Z,1012.75
2016-09-16T05:55:23.615Z,1012.75
2016-09-16T05:55:49.174Z,1012.77
2016-09-16T05:56:14.751Z,1012.75
2016-09-16T05:56:40.299Z,1012.78
2016-09-16T05:57:05.869Z,1012.77
2016-09-16T05:57:31.436Z,1012.76
2016-09-16T05:57:57.134Z,1012.75
2016-09-16T05:58:22.709Z,1012.83
2016-09-16T05:58:48.265Z,1012.78
2016-09-16T05:59:13.787Z,1012.77
2016-09-16T05:59:39.398Z,1012.76
2016-09-16T06:00:04.989Z,1012.74
2016-09-16T06:01:18.412Z,1012.74
2016-09-16T06:01:44.062Z,1012.77
2016-09-16T06:02:09.594Z,1012.73
2016-09-16T06:02:35.173Z,1012.75
2016-09-16T06:03:00.717Z,1012.78
2016-09-16T06:03:26.279Z,1012.77
2016-09-16T06:03:51.861Z,1012.79
2016-09-16T06:04:17.455Z,1012.75
2016-09-16T06:04:42.999Z,1012.78
2016-09-16T06:05:08.563Z,1012.77
2016-09-16T06:05:34.120Z,1012.79
2016-09-16T06:05:59.683Z,1012.78
2016-09-16T06:06:25.399Z,1012.75
2016-09-16T06:06:50.973Z,1012.74
2016-09-16T06:07:16.537Z,1012.78
2016-09-16T06:07:42.087Z,1012.76
2016-09-16T06:08:07.639Z,1012.82
2016-09-16T06:08:33.170Z,1012.73
2016-09-16T06:08:58.724Z,1012.74
2016-09-16T06:09:24.285Z,1012.75
2016-09-16T06:09:49.835Z,1012.77
2016-09-16T06:10:15.425Z,1012.77
2016-09-16T06:10:40.994Z,1012.76
2016-09-16T06:11:06.618Z,1012.78
2016-09-16T06:11:32.234Z,1012.77
2016-09-16T06:11:57.804Z,1012.81
2016-09-16T06:12:23.375Z,1012.75
2016-09-16T06:12:48.955Z,1012.74
2016-09-16T06:13:14.523Z,1012.78
2016-09-16T06:13:40.107Z,1012.76
2016-09-16T06:14:05.689Z,1012.75
2016-09-16T06:14:31.447Z,1012.77
2016-09-16T06:14:57.002Z,1012.74
2016-09-16T06:15:22.659Z,1012.77
2016-09-16T06:15:48.288Z,1012.77
2016-09-16T06:16:13.819Z,1012.76
2016-09-16T06:16:39.446Z,1012.74
2016-09-16T06:17:05.011Z,1012.74
2016-09-16T06:18:03.085Z,1012.75
2016-09-16T06:18:28.629Z,1012.76
2016-09-16T06:18:54.225Z,1012.72
2016-09-16T06:19:19.808Z,1012.7
2016-09-16T06:19:45.356Z,1012.75
2016-09-16T06:20:10.927Z,1012.73
2016-09-16T06:20:36.595Z,1012.73
2016-09-16T06:21:02.145Z,1012.73
2016-09-16T06:21:27.667Z,1012.71
2016-09-16T06:21:53.222Z,1012.75
2016-09-16T06:22:18.781Z,1012.76
2016-09-16T06:22:44.331Z,1012.73
2016-09-16T06:23:09.901Z,1012.72
2016-09-16T06:23:35.484Z,1012.71
2016-09-16T06:24:01.053Z,1012.72
2016-09-16T06:24:26.616Z,1012.69
2016-09-16T06:24:52.166Z,1012.75
2016-09-16T06:25:17.729Z,1012.72
2016-09-16T06:25:43.380Z,1012.71
2016-09-16T06:26:08.918Z,1012.7
2016-09-16T06:26:34.550Z,1012.74
2016-09-16T06:27:00.242Z,1012.75
2016-09-16T06:27:25.786Z,1012.74
2016-09-16T06:27:51.335Z,1012.72
2016-09-16T06:28:16.931Z,1012.76
2016-09-16T06:28:42.533Z,1012.8
2016-09-16T06:29:08.116Z,1012.84
2016-09-16T06:29:33.695Z,1012.85
2016-09-16T06:29:59.271Z,1012.82
2016-09-16T06:30:24.841Z,1012.92
2016-09-16T06:30:50.505Z,1012.92
2016-09-16T06:31:16.064Z,1012.94
2016-09-16T06:31:41.609Z,1012.96
2016-09-16T06:32:07.192Z,1012.97
2016-09-16T06:32:32.764Z,1013.04
2016-09-16T06:32:58.313Z,1012.99
2016-09-16T06:34:01.555Z,1013.02
2016-09-16T06:34:27.122Z,1013.05
2016-09-16T06:34:52.775Z,1013.05
2016-09-16T06:35:18.336Z,1013.12
2016-09-16T06:35:43.890Z,1013.09
2016-09-16T06:36:09.487Z,1013.11
2016-09-16T06:36:35.110Z,1013.08
2016-09-16T06:37:00.696Z,1013.09
2016-09-16T06:37:26.257Z,1013.14
2016-09-16T06:37:51.940Z,1013.15
2016-09-16T06:38:17.496Z,1013.14
2016-09-16T06:38:43.190Z,1013.15
2016-09-16T06:39:08.774Z,1013.13
2016-09-16T06:39:34.318Z,1013.15
2016-09-16T06:39:59.949Z,1013.14
2016-09-16T06:40:25.604Z,1013.16
2016-09-16T06:40:51.157Z,1013.13
2016-09-16T06:41:16.710Z,1013.19
2016-09-16T06:41:42.256Z,1013.14
2016-09-16T06:42:07.821Z,1013.16
2016-09-16T06:42:33.369Z,1013.15
2016-09-16T06:42:58.919Z,1013.14
2016-09-16T06:43:24.455Z,1013.16
2016-09-16T06:43:50.218Z,1013.13
2016-09-16T06:44:15.792Z,1013.12
2016-09-16T06:44:41.340Z,1013.11
2016-09-16T06:45:06.959Z,1013.14
2016-09-16T06:45:32.697Z,1013.11
2016-09-16T06:45:58.276Z,1013.12
2016-09-16T06:46:23.840Z,1013.12
2016-09-16T06:46:49.382Z,1013.09
2016-09-16T06:47:14.934Z,1013.07
2016-09-16T06:47:40.477Z,1013.14
2016-09-16T06:48:58.997Z,1013.12
2016-09-16T06:49:24.691Z,1013.12
2016-09-16T06:49:50.264Z,1013.15
2016-09-16T06:50:15.813Z,1013.11
2016-09-16T06:50:41.410Z,1013.13
2016-09-16T06:51:07.034Z,1013.15
2016-09-16T06:51:32.576Z,1013.14
2016-09-16T06:51:58.149Z,1013.14
2016-09-16T06:52:23.736Z,1013.13
2016-09-16T06:52:49.374Z,1013.18
2016-09-16T06:53:14.987Z,1013.14
2016-09-16T06:53:40.538Z,1013.15
2016-09-16T06:54:06.139Z,1013.14
2016-09-16T06:54:31.687Z,1013.15
2016-09-16T06:54:57.239Z,1013.15
2016-09-16T06:55:22.948Z,1013.16
2016-09-16T06:55:48.496Z,1013.1
2016-09-16T06:56:14.066Z,1013.15
2016-09-16T06:56:39.650Z,1013.11
2016-09-16T06:57:05.227Z,1013.12
2016-09-16T06:57:30.836Z,1013.14
2016-09-16T06:57:56.391Z,1013.16
2016-09-16T06:58:21.986Z,1013.12
2016-09-16T06:58:47.538Z,1013.13
2016-09-16T06:59:13.118Z,1013.11
2016-09-16T06:59:38.666Z,1013.14
2016-09-16T07:00:04.249Z,1013.16
2016-09-16T07:00:29.810Z,1013.15
2016-09-16T07:00:55.378Z,1013.16
2016-09-16T07:01:20.951Z,1013.14
2016-09-16T07:01:46.492Z,1013.13
2016-09-16T07:02:12.049Z,1013.13
2016-09-16T07:02:37.609Z,1013.08
2016-09-16T07:03:03.306Z,1013.08
2016-09-16T07:03:28.871Z,1013.09
2016-09-16T07:03:54.435Z,1013.09
2016-09-16T07:04:19.994Z,1013.07
2016-09-16T07:04:45.556Z,1013.06
2016-09-16T07:05:11.144Z,1013.06
2016-09-16T07:05:36.709Z,1013.08
2016-09-16T07:06:02.281Z,1013.09
2016-09-16T07:06:28.041Z,1013.06
2016-09-16T07:06:53.758Z,1013.05
2016-09-16T07:07:19.331Z,1013.06
2016-09-16T07:07:44.901Z,1013.07
2016-09-16T07:08:10.573Z,1013.09
2016-09-16T07:08:36.157Z,1013.03
2016-09-16T07:09:01.778Z,1013.04
2016-09-16T07:09:27.350Z,1013.04
2016-09-16T07:09:52.914Z,1012.99
2016-09-16T07:10:18.459Z,1013.03
2016-09-16T07:10:44.020Z,1013.02
2016-09-16T07:11:09.585Z,1013.06
2016-09-16T07:11:35.143Z,1013.04
2016-09-16T07:12:00.694Z,1013.03
2016-09-16T07:12:26.273Z,1013
2016-09-16T07:12:51.841Z,1013.02
2016-09-16T07:13:17.401Z,1012.99
2016-09-16T07:13:42.971Z,1013
2016-09-16T07:14:08.616Z,1013.02
2016-09-16T07:14:34.159Z,1013
2016-09-16T07:14:59.722Z,1013.02
2016-09-16T07:15:25.312Z,1013.07
2016-09-16T07:15:50.955Z,1013.01
2016-09-16T07:16:16.551Z,1013.1
2016-09-16T07:16:42.084Z,1013.07
2016-09-16T07:17:07.666Z,1013.13
2016-09-16T07:17:33.233Z,1013.12
2016-09-16T07:17:58.796Z,1013.11
2016-09-16T07:18:24.369Z,1013.15
2016-09-16T07:18:49.948Z,1013.14
2016-09-16T07:19:15.518Z,1013.16
2016-09-16T07:19:41.088Z,1013.18
2016-09-16T07:20:06.680Z,1013.17
2016-09-16T07:20:32.259Z,1013.17
2016-09-16T07:20:57.818Z,1013.14
2016-09-16T07:21:23.373Z,1013.12
2016-09-16T07:21:48.939Z,1013.13
2016-09-16T07:22:14.508Z,1013.13
2016-09-16T07:22:40.137Z,1013.11
2016-09-16T07:23:05.699Z,1013.08
2016-09-16T07:23:31.256Z,1013.1
2016-09-16T07:23:56.823Z,1013.1
2016-09-16T07:24:22.398Z,1013.11
2016-09-16T07:24:47.960Z,1013.1
2016-09-16T07:25:13.527Z,1013.06
2016-09-16T07:25:39.099Z,1013.08
2016-09-16T07:26:04.665Z,1013.08
2016-09-16T07:26:30.266Z,1013.09
2016-09-16T07:26:55.879Z,1013.08
2016-09-16T07:27:21.442Z,1013.1
2016-09-16T07:27:46.997Z,1013.06
2016-09-16T07:28:12.569Z,1013.05
2016-09-16T07:28:38.130Z,1013.04
2016-09-16T07:29:03.707Z,1013.05
2016-09-16T07:29:29.271Z,1013.03
2016-09-16T07:29:54.851Z,1013.02
2016-09-16T07:30:20.438Z,1013.03
2016-09-16T07:30:46.018Z,1013.03
2016-09-16T07:31:11.584Z,1013.05
2016-09-16T07:31:37.260Z,1013.03
2016-09-16T07:32:02.927Z,1013.03
2016-09-16T07:32:28.480Z,1013.07
2016-09-16T07:32:54.013Z,1013.03
2016-09-16T07:33:19.580Z,1013.03
2016-09-16T07:33:45.125Z,1013
2016-09-16T07:34:10.655Z,1013.02
2016-09-16T07:34:36.795Z,1013.03
2016-09-16T07:35:02.328Z,1013.01
2016-09-16T07:35:27.901Z,1013.01
2016-09-16T07:35:53.436Z,1013.01
2016-09-16T07:36:18.981Z,1013.02
2016-09-16T07:36:44.538Z,1013.03
2016-09-16T07:37:10.107Z,1013.01
2016-09-16T07:37:35.655Z,1013.04
2016-09-16T07:38:01.208Z,1013.03
2016-09-16T07:38:26.835Z,1013.03
2016-09-16T07:38:52.503Z,1013.01
2016-09-16T07:39:18.247Z,1013.06
2016-09-16T07:39:43.800Z,1013.04
2016-09-16T07:40:09.384Z,1013.03
2016-09-16T07:40:35.029Z,1013.06
2016-09-16T07:41:00.610Z,1013.06
2016-09-16T07:41:26.174Z,1013.03
2016-09-16T07:41:51.754Z,1013.03
2016-09-16T07:42:17.298Z,1013.04
2016-09-16T07:42:42.863Z,1013.06
2016-09-16T07:43:08.504Z,1013.05
2016-09-16T07:43:34.118Z,1013.05
2016-09-16T07:43:59.667Z,1013.08
2016-09-16T07:44:25.222Z,1013.04
2016-09-16T07:44:50.868Z,1013.04
2016-09-16T07:45:16.431Z,1013.03
2016-09-16T07:45:42.096Z,1013.06
2016-09-16T07:46:07.643Z,1013.06
2016-09-16T07:46:33.234Z,1013.03
2016-09-16T07:46:58.769Z,1013.03
2016-09-16T07:47:24.313Z,1013.03
2016-09-16T07:47:49.935Z,1013.03
2016-09-16T07:48:15.554Z,1013.04
2016-09-16T07:48:41.149Z,1013.08
2016-09-16T07:49:06.719Z,1013.07
2016-09-16T07:49:32.259Z,1013.04
2016-09-16T07:49:57.811Z,1013.08
2016-09-16T07:50:23.391Z,1013.05
2016-09-16T07:50:48.935Z,1013.07
2016-09-16T07:51:14.496Z,1013.05
2016-09-16T07:51:40.056Z,1013.07
2016-09-16T07:52:05.649Z,1013.09
2016-09-16T07:52:31.220Z,1013.03
2016-09-16T07:52:56.783Z,1013.04
2016-09-16T07:53:22.487Z,1013.05
2016-09-16T07:53:48.045Z,1013.1
2016-09-16T07:54:13.594Z,1013.05
2016-09-16T07:54:39.152Z,1013.09
2016-09-16T07:55:04.763Z,1013.12
2016-09-16T07:55:30.320Z,1013.07
2016-09-16T07:55:55.884Z,1013.07
2016-09-16T07:56:21.463Z,1013.1
2016-09-16T07:56:47.024Z,1013.12
2016-09-16T07:57:12.597Z,1013.17
2016-09-16T07:57:38.174Z,1013.13
2016-09-16T07:58:03.986Z,1013.11
2016-09-16T07:58:29.578Z,1013.16
2016-09-16T07:58:55.163Z,1013.16
2016-09-16T07:59:20.791Z,1013.18
2016-09-16T07:59:46.344Z,1013.2
2016-09-16T08:00:11.987Z,1013.22
2016-09-16T08:00:37.732Z,1013.22
2016-09-16T08:01:03.514Z,1013.27
2016-09-16T08:01:29.190Z,1013.25
2016-09-16T08:01:54.753Z,1013.25
2016-09-16T08:02:20.332Z,1013.29
2016-09-16T08:02:45.895Z,1013.26
2016-09-16T08:03:11.470Z,1013.29
2016-09-16T08:03:37.172Z,1013.28
2016-09-16T08:04:02.767Z,1013.29
2016-09-16T08:04:28.435Z,1013.32
2016-09-16T08:04:54.020Z,1013.32
2016-09-16T08:05:19.900Z,1013.3
2016-09-16T08:05:45.460Z,1013.31
2016-09-16T08:06:11.044Z,1013.31
2016-09-16T08:06:36.618Z,1013.34
2016-09-16T08:07:02.207Z,1013.36
2016-09-16T08:07:27.770Z,1013.32
2016-09-16T08:07:53.334Z,1013.32
2016-09-16T08:09:01.666Z,1013.35
2016-09-16T08:09:27.252Z,1013.31
2016-09-16T08:09:52.794Z,1013.28
2016-09-16T08:10:18.348Z,1013.3
2016-09-16T08:10:43.904Z,1013.32
2016-09-16T08:11:09.460Z,1013.38
2016-09-16T08:11:35.014Z,1013.34
2016-09-16T08:12:00.625Z,1013.3
2016-09-16T08:12:26.202Z,1013.29
2016-09-16T08:12:51.766Z,1013.31
2016-09-16T08:13:17.324Z,1013.3
2016-09-16T08:13:43.008Z,1013.29
2016-09-16T08:14:08.625Z,1013.3
2016-09-16T08:14:34.170Z,1013.29
2016-09-16T08:14:59.745Z,1013.3
2016-09-16T08:15:25.300Z,1013.35
2016-09-16T08:15:50.866Z,1013.29
2016-09-16T08:16:16.437Z,1013.32
2016-09-16T08:16:42.001Z,1013.34
2016-09-16T08:17:07.621Z,1013.35
2016-09-16T08:17:33.198Z,1013.3
2016-09-16T08:17:58.753Z,1013.34
2016-09-16T08:18:56.821Z,1013.38
2016-09-16T08:19:22.475Z,1013.41
2016-09-16T08:19:48.026Z,1013.34
2016-09-16T08:20:13.605Z,1013.41
2016-09-16T08:20:39.138Z,1013.42
2016-09-16T08:21:04.714Z,1013.38
2016-09-16T08:21:30.251Z,1013.42
2016-09-16T08:21:55.875Z,1013.38